Time;durP1;ratioP1;P1;durP2;ratioP2;P2;SDS_P1;SDS_P2;PMS_P1;PMS_P2;Temp;Humidity;BMP_temperature;BMP_pressure;BME280_temperature;BME280_humidity;BME280_pressure;Samples;Min_cycle;Max_cycle;Signal;HPM_P1;HPM_P2
2021/03/02 05:35:18;;;;;;;66.93;24.52;;;;;;;;;;5158105;23;20049;-74
2021/03/02 05:37:44;;;;;;;60.22;22.48;;;;;;;;;;5010421;28;20040;-75
2021/03/02 05:40:11;;;;;;;56.22;22.52;;;;;;;;;;5009560;28;20120;-76
2021/03/02 05:42:44;;;;;;;58.80;23.92;;;;;;;;;;5010212;28;20037;-72
2021/03/02 05:45:25;;;;;;;53.53;21.25;;;;;;;;;;5009179;28;20446;-76
2021/03/02 05:47:53;;;;;;;50.95;21.58;;;;;;;;;;5010679;28;20117;-72
2021/03/02 05:50:19;;;;;;;55.35;22.55;;;;;;;;;;5010716;28;20030;-73
2021/03/02 05:52:45;;;;;;;58.03;23.17;;;;;;;;;;5010506;28;20112;-73
2021/03/02 05:55:12;;;;;;;62.42;23.33;;;;;;;;;;5009866;28;20462;-73
2021/03/02 05:57:39;;;;;;;67.30;26.60;;;;;;;;;;5009656;28;20049;-74
2021/03/02 06:00:06;;;;;;;57.70;22.75;;;;;;;;;;5009524;28;20029;-72
2021/03/02 06:02:35;;;;;;;54.45;22.35;;;;;;;;;;5009693;28;20028;-73
2021/03/02 06:05:04;;;;;;;60.95;24.38;;;;;;;;;;5009126;28;20037;-72
2021/03/02 06:25:36;;;;;;;63.17;24.98;;;;;;;;;;5044448;28;20060;-73
2021/03/02 06:28:06;;;;;;;59.08;24.45;;;;;;;;;;5019902;28;20037;-73
2021/03/02 06:30:32;;;;;;;52.83;22.98;;;;;;;;;;5021299;28;20045;-74
2021/03/02 06:32:58;;;;;;;52.33;23.45;;;;;;;;;;5031586;28;20079;-73
2021/03/02 06:58:46;;;;;;;57.50;26.48;;;;;;;;;;6126614;22;20008;-73
2021/03/02 07:01:12;;;;;;;70.03;31.60;;;;;;;;;;5067735;28;20086;-70
2021/03/02 07:03:38;;;;;;;67.30;32.78;;;;;;;;;;5056681;28;20060;-70
2021/03/02 07:06:06;;;;;;;77.47;36.60;;;;;;;;;;5053084;28;20029;-68
2021/03/02 07:08:32;;;;;;;64.35;27.20;;;;;;;;;;5053050;28;20036;-69
2021/03/02 07:11:03;;;;;;;53.17;25.13;;;;;;;;;;5064956;28;20036;-71
2021/03/02 07:13:32;;;;;;;59.75;25.80;;;;;;;;;;5072871;28;20028;-71
2021/03/02 07:15:59;;;;;;;61.67;27.38;;;;;;;;;;5072636;28;20089;-70
2021/03/02 07:18:28;;;;;;;71.13;33.95;;;;;;;;;;5072750;28;20037;-69
2021/03/02 07:20:59;;;;;;;70.65;32.97;;;;;;;;;;5070883;28;20025;-70
2021/03/02 07:23:26;;;;;;;93.28;46.08;;;;;;;;;;5072106;28;20032;-71
2021/03/02 07:25:55;;;;;;;67.78;34.33;;;;;;;;;;5072828;28;20021;-69
2021/03/02 07:28:22;;;;;;;51.92;24.42;;;;;;;;;;5072338;28;20025;-69
2021/03/02 07:30:48;;;;;;;52.70;25.77;;;;;;;;;;5072626;28;20472;-69
2021/03/02 07:33:15;;;;;;;52.40;26.17;;;;;;;;;;5046604;28;20115;-72
2021/03/02 07:35:41;;;;;;;48.67;24.73;;;;;;;;;;5034748;28;20370;-70
2021/03/02 07:38:17;;;;;;;53.80;24.35;;;;;;;;;;5034619;28;20382;-70
2021/03/02 07:40:47;;;;;;;49.72;25.58;;;;;;;;;;5052666;28;20134;-68
2021/03/02 07:43:22;;;;;;;55.13;26.50;;;;;;;;;;5034705;28;20539;-69
2021/03/02 07:45:48;;;;;;;52.55;27.17;;;;;;;;;;5052504;28;20405;-70
2021/03/02 07:48:24;;;;;;;48.17;24.27;;;;;;;;;;5052578;28;20033;-69
2021/03/02 07:51:10;;;;;;;63.63;25.15;;;;;;;;;;5052357;28;20388;-70
2021/03/02 07:53:36;;;;;;;53.08;26.10;;;;;;;;;;5034124;28;20071;-69
2021/03/02 07:56:16;;;;;;;51.72;25.55;;;;;;;;;;5052254;28;20068;-70
2021/03/02 07:58:43;;;;;;;48.75;25.05;;;;;;;;;;5055732;28;20128;-71
2021/03/02 08:01:23;;;;;;;52.63;26.40;;;;;;;;;;5056341;28;20032;-73
2021/03/02 08:03:49;;;;;;;56.20;28.27;;;;;;;;;;5056151;28;20104;-71
2021/03/02 08:06:21;;;;;;;53.75;26.55;;;;;;;;;;5056316;28;20032;-71
2021/03/02 08:08:48;;;;;;;47.53;25.20;;;;;;;;;;5056405;28;20021;-70
2021/03/02 08:11:30;;;;;;;53.58;25.27;;;;;;;;;;5055968;28;20384;-72
2021/03/02 08:13:57;;;;;;;51.85;26.10;;;;;;;;;;5044985;28;20028;-71
2021/03/02 08:16:41;;;;;;;47.45;25.25;;;;;;;;;;5037814;28;20045;-72
2021/03/02 08:19:29;;;;;;;49.90;24.85;;;;;;;;;;5038471;28;20082;-70
2021/03/02 08:21:55;;;;;;;50.67;26.52;;;;;;;;;;5037968;28;20084;-69
2021/03/02 08:24:41;;;;;;;46.47;25.13;;;;;;;;;;5055939;28;20488;-71
2021/03/02 08:27:07;;;;;;;48.15;25.65;;;;;;;;;;5038052;28;20021;-70
2021/03/02 08:29:33;;;;;;;48.85;24.95;;;;;;;;;;5055945;28;20040;-71
2021/03/02 08:31:59;;;;;;;49.38;25.58;;;;;;;;;;5056002;28;20029;-70
2021/03/02 08:34:25;;;;;;;47.33;25.15;;;;;;;;;;5038503;28;20025;-71
2021/03/02 08:36:52;;;;;;;49.53;26.67;;;;;;;;;;5037563;28;20044;-71
2021/03/02 08:39:19;;;;;;;45.13;24.50;;;;;;;;;;5055586;28;20441;-72
2021/03/02 08:41:47;;;;;;;44.90;24.38;;;;;;;;;;5037604;28;20036;-72
2021/03/02 08:44:20;;;;;;;50.17;25.98;;;;;;;;;;5037547;28;20384;-74
2021/03/02 08:46:50;;;;;;;47.50;26.02;;;;;;;;;;5037473;28;20035;-74
2021/03/02 08:49:16;;;;;;;45.50;25.55;;;;;;;;;;5039459;28;20043;-72
2021/03/02 08:51:42;;;;;;;42.53;22.33;;;;;;;;;;5073073;28;20029;-72
2021/03/02 08:54:08;;;;;;;45.03;23.65;;;;;;;;;;5068519;28;20373;-71
2021/03/02 08:56:35;;;;;;;41.20;22.88;;;;;;;;;;5074335;28;20097;-69
2021/03/02 08:59:14;;;;;;;40.30;22.75;;;;;;;;;;5074246;28;20028;-71
2021/03/02 09:01:41;;;;;;;41.58;23.73;;;;;;;;;;5075196;28;20031;-70
2021/03/02 09:04:11;;;;;;;46.50;24.00;;;;;;;;;;5074938;28;20029;-70
2021/03/02 09:06:39;;;;;;;45.65;24.40;;;;;;;;;;5068652;28;20040;-70
2021/03/02 09:09:09;;;;;;;47.90;23.17;;;;;;;;;;5054642;28;20029;-71
2021/03/02 09:11:37;;;;;;;40.78;23.08;;;;;;;;;;5055034;28;20028;-69
2021/03/02 09:14:05;;;;;;;40.95;22.20;;;;;;;;;;5055076;28;20372;-70
2021/03/02 09:16:33;;;;;;;39.50;21.40;;;;;;;;;;5035328;28;20038;-71
2021/03/02 09:18:59;;;;;;;40.58;22.25;;;;;;;;;;5073461;28;20031;-70
2021/03/02 09:21:25;;;;;;;41.55;23.52;;;;;;;;;;5071193;28;20481;-70
2021/03/02 09:23:51;;;;;;;37.25;21.10;;;;;;;;;;5068478;28;20028;-70
2021/03/02 09:26:24;;;;;;;39.83;21.70;;;;;;;;;;5074138;28;20036;-70
2021/03/02 09:28:54;;;;;;;39.03;21.25;;;;;;;;;;5074656;28;20044;-72
2021/03/02 09:31:20;;;;;;;39.00;21.10;;;;;;;;;;5052819;28;20041;-69
2021/03/02 09:33:48;;;;;;;40.88;21.60;;;;;;;;;;5074122;28;20067;-70
2021/03/02 09:36:14;;;;;;;40.95;23.40;;;;;;;;;;5074255;28;20066;-71
2021/03/02 09:38:40;;;;;;;41.30;23.00;;;;;;;;;;5056326;28;20025;-72
2021/03/02 09:41:06;;;;;;;39.15;21.25;;;;;;;;;;5056394;28;20029;-75
2021/03/02 09:43:39;;;;;;;42.40;21.02;;;;;;;;;;5057131;28;20024;-72
2021/03/02 09:46:06;;;;;;;37.72;20.40;;;;;;;;;;5055925;28;20377;-73
2021/03/02 09:48:45;;;;;;;33.10;18.73;;;;;;;;;;5056392;28;20058;-70
2021/03/02 09:51:30;;;;;;;35.92;18.33;;;;;;;;;;5073827;28;20056;-73
2021/03/02 09:54:25;;;;;;;34.30;18.10;;;;;;;;;;5066543;28;20115;-75
2021/03/02 09:56:57;;;;;;;33.47;18.20;;;;;;;;;;5040109;28;20048;-72
2021/03/02 09:59:24;;;;;;;35.67;18.33;;;;;;;;;;5073189;28;20044;-73
2021/03/02 10:01:50;;;;;;;33.65;17.83;;;;;;;;;;5055189;28;20124;-70
2021/03/02 10:04:17;;;;;;;36.35;18.95;;;;;;;;;;5053814;28;20421;-73
2021/03/02 10:06:43;;;;;;;30.27;17.08;;;;;;;;;;5065454;28;20024;-73
2021/03/02 10:09:18;;;;;;;32.38;17.27;;;;;;;;;;5054574;28;20116;-71
2021/03/02 10:11:47;;;;;;;39.40;18.60;;;;;;;;;;5043660;28;20478;-76
2021/03/02 10:14:13;;;;;;;38.42;20.08;;;;;;;;;;5055075;28;20024;-71
2021/03/02 10:16:41;;;;;;;39.70;18.83;;;;;;;;;;5073136;28;20036;-69
2021/03/02 10:19:21;;;;;;;35.05;19.35;;;;;;;;;;5051052;28;20028;-69
2021/03/02 10:21:57;;;;;;;37.23;18.40;;;;;;;;;;5072084;28;20029;-72
2021/03/02 10:24:26;;;;;;;47.92;19.95;;;;;;;;;;5072739;28;20036;-72
2021/03/02 10:26:53;;;;;;;49.22;18.90;;;;;;;;;;5054702;28;20032;-72
2021/03/02 10:29:20;;;;;;;37.22;17.50;;;;;;;;;;5055003;28;20056;-72
2021/03/02 10:31:46;;;;;;;33.45;15.48;;;;;;;;;;5055258;28;20021;-71
2021/03/02 10:34:12;;;;;;;31.92;16.27;;;;;;;;;;5072927;28;20043;-69
2021/03/02 10:36:40;;;;;;;29.85;14.48;;;;;;;;;;5072850;28;20044;-70
2021/03/02 10:39:11;;;;;;;35.53;15.85;;;;;;;;;;5055055;28;20428;-73
2021/03/02 10:41:37;;;;;;;44.28;18.10;;;;;;;;;;5072729;28;20032;-72
2021/03/02 10:44:06;;;;;;;31.98;14.27;;;;;;;;;;5072913;28;20108;-72
2021/03/02 10:46:32;;;;;;;30.35;14.48;;;;;;;;;;5054913;28;20030;-69
2021/03/02 10:48:59;;;;;;;39.05;19.23;;;;;;;;;;5051732;28;20427;-73
2021/03/02 10:51:25;;;;;;;36.45;16.05;;;;;;;;;;5053745;28;20040;-72
2021/03/02 10:53:51;;;;;;;36.92;17.42;;;;;;;;;;5072935;28;20380;-71
2021/03/02 10:56:18;;;;;;;36.47;16.63;;;;;;;;;;5054699;28;21100;-72
2021/03/02 10:58:44;;;;;;;30.23;14.52;;;;;;;;;;5072561;28;20111;-69
2021/03/02 11:01:10;;;;;;;27.27;13.95;;;;;;;;;;5066027;28;20044;-70
2021/03/02 11:03:36;;;;;;;30.48;13.35;;;;;;;;;;5035063;28;20029;-68
2021/03/02 11:06:02;;;;;;;28.63;14.50;;;;;;;;;;5052342;28;20025;-68
2021/03/02 11:08:31;;;;;;;39.40;16.35;;;;;;;;;;5052343;28;20060;-71
2021/03/02 11:10:57;;;;;;;53.50;21.58;;;;;;;;;;5034143;28;20029;-69
2021/03/02 11:13:23;;;;;;;61.13;26.23;;;;;;;;;;5052571;28;20107;-69
2021/03/02 11:15:49;;;;;;;44.15;20.05;;;;;;;;;;5052093;28;20032;-71
2021/03/02 11:18:15;;;;;;;33.88;14.23;;;;;;;;;;5052387;28;20457;-68
2021/03/02 11:20:45;;;;;;;36.50;12.70;;;;;;;;;;5034328;28;20381;-71
2021/03/02 11:23:14;;;;;;;27.00;11.45;;;;;;;;;;5052428;28;20083;-68
2021/03/02 11:25:41;;;;;;;27.08;12.13;;;;;;;;;;5052404;28;20120;-67
2021/03/02 11:28:08;;;;;;;26.02;12.30;;;;;;;;;;5052241;28;20036;-71
2021/03/02 11:30:34;;;;;;;33.13;11.88;;;;;;;;;;5034224;28;20047;-73
2021/03/02 11:33:00;;;;;;;25.40;12.18;;;;;;;;;;5052611;28;20107;-69
2021/03/02 11:35:26;;;;;;;24.08;11.45;;;;;;;;;;5052467;28;20461;-70
2021/03/02 11:37:52;;;;;;;23.02;10.93;;;;;;;;;;5052039;28;20489;-70
2021/03/02 11:40:19;;;;;;;25.92;11.50;;;;;;;;;;5034492;28;20021;-70
2021/03/02 11:42:45;;;;;;;30.52;11.80;;;;;;;;;;5052476;28;20032;-70
2021/03/02 11:45:11;;;;;;;29.83;11.43;;;;;;;;;;5052431;28;20425;-71
2021/03/02 11:47:38;;;;;;;27.25;11.60;;;;;;;;;;5052355;28;20377;-73
2021/03/02 11:50:05;;;;;;;25.08;10.23;;;;;;;;;;5052565;28;20018;-70
2021/03/02 11:52:31;;;;;;;24.50;11.27;;;;;;;;;;5034473;28;20029;-70
2021/03/02 11:54:57;;;;;;;23.45;11.25;;;;;;;;;;5052482;28;20484;-70
2021/03/02 11:57:23;;;;;;;23.27;10.57;;;;;;;;;;5052203;28;20095;-71
2021/03/02 11:59:49;;;;;;;18.23;8.65;;;;;;;;;;5052193;28;20049;-73
2021/03/02 12:02:18;;;;;;;23.02;9.63;;;;;;;;;;5034543;28;20816;-74
2021/03/02 12:04:44;;;;;;;19.55;10.07;;;;;;;;;;5033703;28;20041;-69
2021/03/02 12:07:11;;;;;;;20.08;9.25;;;;;;;;;;5052090;28;20028;-69
2021/03/02 12:09:37;;;;;;;26.15;10.82;;;;;;;;;;5052341;28;20033;-69
2021/03/02 12:12:04;;;;;;;20.70;10.73;;;;;;;;;;5034442;28;20029;-69
2021/03/02 12:14:30;;;;;;;19.17;8.77;;;;;;;;;;5052307;28;20025;-71
2021/03/02 12:16:57;;;;;;;21.67;9.13;;;;;;;;;;5052046;28;20037;-70
2021/03/02 12:19:23;;;;;;;20.02;8.75;;;;;;;;;;5052222;28;20473;-72
2021/03/02 12:21:49;;;;;;;20.17;10.00;;;;;;;;;;5052078;28;20036;-71
2021/03/02 12:24:15;;;;;;;17.52;7.53;;;;;;;;;;5066119;28;20523;-71
2021/03/02 12:26:41;;;;;;;15.80;7.35;;;;;;;;;;5069972;28;20028;-71
2021/03/02 12:29:07;;;;;;;15.40;7.43;;;;;;;;;;5070638;28;20043;-71
2021/03/02 12:31:34;;;;;;;16.92;7.22;;;;;;;;;;5070187;28;20017;-70
2021/03/02 12:34:00;;;;;;;16.50;7.78;;;;;;;;;;5071076;28;20037;-72
2021/03/02 12:36:26;;;;;;;18.50;8.00;;;;;;;;;;5072110;28;20115;-73
2021/03/02 12:38:52;;;;;;;18.70;8.27;;;;;;;;;;5054074;28;20441;-72
2021/03/02 12:41:18;;;;;;;20.38;9.05;;;;;;;;;;5072020;28;20384;-73
2021/03/02 12:43:44;;;;;;;22.88;9.65;;;;;;;;;;5074073;28;20357;-72
2021/03/02 12:46:10;;;;;;;16.98;8.20;;;;;;;;;;5057630;28;20024;-73
2021/03/02 12:48:36;;;;;;;19.08;8.00;;;;;;;;;;5075714;28;20051;-73
2021/03/02 12:51:02;;;;;;;16.70;8.10;;;;;;;;;;5073948;28;20040;-73
2021/03/02 12:53:28;;;;;;;21.05;8.43;;;;;;;;;;5074338;28;20033;-73
2021/03/02 12:55:54;;;;;;;17.27;7.70;;;;;;;;;;5067619;28;20450;-70
2021/03/02 12:58:20;;;;;;;15.55;7.15;;;;;;;;;;5069835;28;20385;-69
2021/03/02 13:00:46;;;;;;;16.15;7.05;;;;;;;;;;5074516;28;20067;-70
2021/03/02 13:03:13;;;;;;;15.75;7.40;;;;;;;;;;5073397;28;20540;-69
2021/03/02 13:05:40;;;;;;;15.00;7.07;;;;;;;;;;5071025;28;20549;-70
2021/03/02 13:08:06;;;;;;;16.33;7.35;;;;;;;;;;5073492;28;20025;-70
2021/03/02 13:10:32;;;;;;;31.33;21.77;;;;;;;;;;5073820;28;20020;-69
2021/03/02 13:13:04;;;;;;;20.13;13.85;;;;;;;;;;5074484;28;20055;-71
2021/03/02 13:15:30;;;;;;;21.33;10.88;;;;;;;;;;5074424;28;20353;-70
2021/03/02 13:17:57;;;;;;;17.17;8.35;;;;;;;;;;5074369;28;20044;-70
2021/03/02 13:20:23;;;;;;;17.67;8.50;;;;;;;;;;5074453;28;20020;-69
2021/03/02 13:22:52;;;;;;;16.90;8.18;;;;;;;;;;5075078;28;20354;-70
2021/03/02 13:25:18;;;;;;;16.92;8.07;;;;;;;;;;5074885;28;20103;-69
2021/03/02 13:27:46;;;;;;;18.38;7.95;;;;;;;;;;5071575;28;20032;-72
2021/03/02 13:30:14;;;;;;;17.15;7.70;;;;;;;;;;5071534;28;20036;-69
2021/03/02 13:32:43;;;;;;;18.45;8.43;;;;;;;;;;5055886;28;20060;-69
2021/03/02 13:35:09;;;;;;;19.58;8.40;;;;;;;;;;5073535;28;20111;-68
2021/03/02 13:37:36;;;;;;;19.95;10.00;;;;;;;;;;5071582;28;20104;-70
2021/03/02 13:40:04;;;;;;;16.92;8.65;;;;;;;;;;5066494;28;20495;-69
2021/03/02 13:42:30;;;;;;;16.95;8.25;;;;;;;;;;5073845;28;20422;-71
2021/03/02 13:44:56;;;;;;;16.08;7.72;;;;;;;;;;5074276;28;20025;-70
2021/03/02 13:47:22;;;;;;;35.47;15.18;;;;;;;;;;5074148;28;20020;-71
2021/03/02 13:49:48;;;;;;;19.88;10.38;;;;;;;;;;5073727;28;20025;-69
2021/03/02 13:52:14;;;;;;;30.02;9.93;;;;;;;;;;5055435;28;20485;-69
2021/03/02 13:54:40;;;;;;;17.92;7.40;;;;;;;;;;5072918;28;20056;-68
2021/03/02 13:57:06;;;;;;;21.33;7.50;;;;;;;;;;5074682;28;20484;-70
2021/03/02 13:59:33;;;;;;;14.98;6.95;;;;;;;;;;5073653;28;20044;-70
2021/03/02 14:02:02;;;;;;;16.10;7.20;;;;;;;;;;5073770;28;20033;-71
2021/03/02 14:04:29;;;;;;;15.73;7.10;;;;;;;;;;5074096;28;20074;-70
2021/03/02 14:06:55;;;;;;;17.02;6.95;;;;;;;;;;5073887;28;20020;-69
2021/03/02 14:09:21;;;;;;;14.50;7.07;;;;;;;;;;5065109;28;20477;-68
2021/03/02 14:11:47;;;;;;;16.90;7.65;;;;;;;;;;5065547;28;20078;-71
2021/03/02 14:14:14;;;;;;;17.20;7.80;;;;;;;;;;5067131;28;20033;-70
2021/03/02 14:16:40;;;;;;;42.35;24.15;;;;;;;;;;5069032;28;20033;-70
2021/03/02 14:19:06;;;;;;;16.17;9.60;;;;;;;;;;5071537;28;20024;-69
2021/03/02 14:21:33;;;;;;;22.30;12.40;;;;;;;;;;5072708;28;20032;-69
2021/03/02 14:24:01;;;;;;;18.50;8.07;;;;;;;;;;5073094;28;20034;-69
2021/03/02 14:26:27;;;;;;;18.40;8.23;;;;;;;;;;5073231;28;20031;-70
2021/03/02 14:28:53;;;;;;;20.27;10.77;;;;;;;;;;5072321;28;20111;-70
2021/03/02 14:31:19;;;;;;;15.52;8.90;;;;;;;;;;5073013;28;20083;-70
2021/03/02 14:33:45;;;;;;;19.50;9.63;;;;;;;;;;5072352;28;20056;-70
2021/03/02 14:36:11;;;;;;;23.65;9.32;;;;;;;;;;5072404;28;20456;-69
2021/03/02 14:38:37;;;;;;;27.63;19.27;;;;;;;;;;5054682;28;20024;-70
2021/03/02 14:41:03;;;;;;;20.90;13.98;;;;;;;;;;5071037;28;20457;-68
2021/03/02 14:43:36;;;;;;;28.10;19.20;;;;;;;;;;5072886;28;20021;-69
2021/03/02 14:46:03;;;;;;;26.27;14.07;;;;;;;;;;5072983;28;20392;-69
2021/03/02 14:48:34;;;;;;;21.38;10.65;;;;;;;;;;5054037;28;20427;-70
2021/03/02 14:51:01;;;;;;;22.23;13.70;;;;;;;;;;5051875;28;20484;-70
2021/03/02 14:53:28;;;;;;;20.02;8.65;;;;;;;;;;5072096;28;20036;-70
2021/03/02 14:55:58;;;;;;;17.30;8.10;;;;;;;;;;5072137;28;20021;-70
2021/03/02 14:58:25;;;;;;;19.05;10.82;;;;;;;;;;5072169;28;20020;-70
2021/03/02 15:00:56;;;;;;;14.70;7.57;;;;;;;;;;5071726;28;20056;-70
2021/03/02 15:03:22;;;;;;;17.08;10.30;;;;;;;;;;5068092;28;20025;-71
2021/03/02 15:05:49;;;;;;;14.82;8.82;;;;;;;;;;5069536;28;20025;-70
2021/03/02 15:08:15;;;;;;;17.00;8.13;;;;;;;;;;5071184;28;20017;-71
2021/03/02 15:10:41;;;;;;;15.50;7.93;;;;;;;;;;5069737;28;20028;-71
2021/03/02 15:13:07;;;;;;;15.65;8.18;;;;;;;;;;5072376;28;20077;-70
2021/03/02 15:15:34;;;;;;;18.58;9.43;;;;;;;;;;5072270;28;20034;-71
2021/03/02 15:18:01;;;;;;;18.73;8.18;;;;;;;;;;5071126;28;20463;-69
2021/03/02 15:20:30;;;;;;;21.17;9.38;;;;;;;;;;5071558;28;20067;-70
2021/03/02 15:22:56;;;;;;;21.17;9.43;;;;;;;;;;5071681;28;20082;-69
2021/03/02 15:25:25;;;;;;;19.67;11.80;;;;;;;;;;5071606;28;20020;-71
2021/03/02 15:27:53;;;;;;;22.50;14.75;;;;;;;;;;5069346;28;20024;-72
2021/03/02 15:30:19;;;;;;;27.70;17.83;;;;;;;;;;5054592;28;20075;-72
2021/03/02 15:32:45;;;;;;;33.70;20.25;;;;;;;;;;5072548;28;20027;-72
2021/03/02 15:35:12;;;;;;;46.80;25.90;;;;;;;;;;5054333;28;20572;-72
2021/03/02 15:37:41;;;;;;;58.80;27.65;;;;;;;;;;5072400;28;20159;-69
2021/03/02 15:40:12;;;;;;;30.30;13.20;;;;;;;;;;5072359;28;20411;-70
2021/03/02 15:42:38;;;;;;;80.37;34.87;;;;;;;;;;5072047;28;20032;-71
2021/03/02 15:45:06;;;;;;;36.60;16.02;;;;;;;;;;5072512;28;20389;-69
2021/03/02 15:47:32;;;;;;;69.90;28.23;;;;;;;;;;5072353;28;20047;-72
2021/03/02 15:49:59;;;;;;;31.98;13.20;;;;;;;;;;5071805;28;20028;-72
2021/03/02 15:52:27;;;;;;;33.05;14.90;;;;;;;;;;5072414;28;20028;-72
2021/03/02 15:54:53;;;;;;;71.07;26.40;;;;;;;;;;5072508;28;20029;-73
2021/03/02 15:57:19;;;;;;;38.75;17.58;;;;;;;;;;5071769;28;20041;-74
2021/03/02 15:59:45;;;;;;;78.13;31.83;;;;;;;;;;5071594;28;20842;-70
2021/03/02 16:02:11;;;;;;;42.70;20.38;;;;;;;;;;5072082;28;20031;-70
2021/03/02 16:04:49;;;;;;;42.25;20.60;;;;;;;;;;5072097;28;20028;-69
2021/03/02 16:07:21;;;;;;;84.97;36.25;;;;;;;;;;5071886;28;20028;-71
2021/03/02 16:09:47;;;;;;;29.73;14.15;;;;;;;;;;5072309;28;20032;-71
2021/03/02 16:12:33;;;;;;;55.20;23.95;;;;;;;;;;5072045;28;20032;-71
2021/03/02 16:15:01;;;;;;;40.55;18.73;;;;;;;;;;5072209;28;20056;-70
2021/03/02 16:17:28;;;;;;;48.25;22.73;;;;;;;;;;5072006;28;20516;-70
2021/03/02 16:19:55;;;;;;;57.90;31.85;;;;;;;;;;5075866;28;20024;-69
2021/03/02 16:22:27;;;;;;;54.72;24.33;;;;;;;;;;5076108;28;20056;-70
2021/03/02 16:24:53;;;;;;;55.97;25.23;;;;;;;;;;5076088;28;20551;-71
